sensor_id;sensor_type;location;lat;lon;timestamp;P1;durP1;ratioP1;P2;durP2;ratioP2
47483;SDS011;54076;50.322;18.650;2024-01-06T00:02:27;49.30;;;17.40;;
47483;SDS011;54076;50.322;18.650;2024-01-06T00:07:28;51.10;;;17.50;;
47483;SDS011;54076;50.322;18.650;2024-01-06T00:12:29;52.80;;;18.70;;
47483;SDS011;54076;50.322;18.650;2024-01-06T00:17:30;52.40;;;18.30;;
47483;SDS011;54076;50.322;18.650;2024-01-06T00:22:31;49.40;;;17.70;;
47483;SDS011;54076;50.322;18.650;2024-01-06T00:27:31;51.30;;;18.30;;
47483;SDS011;54076;50.322;18.650;2024-01-06T00:32:32;60.00;;;18.60;;
47483;SDS011;54076;50.322;18.650;2024-01-06T00:37:33;52.10;;;17.80;;
47483;SDS011;54076;50.322;18.650;2024-01-06T00:42:34;44.70;;;17.30;;
47483;SDS011;54076;50.322;18.650;2024-01-06T00:47:35;47.20;;;17.40;;
47483;SDS011;54076;50.322;18.650;2024-01-06T00:52:36;45.40;;;17.20;;
47483;SDS011;54076;50.322;18.650;2024-01-06T00:57:37;47.30;;;17.10;;
47483;SDS011;54076;50.322;18.650;2024-01-06T01:02:38;49.30;;;17.30;;
47483;SDS011;54076;50.322;18.650;2024-01-06T01:07:39;59.40;;;18.40;;
47483;SDS011;54076;50.322;18.650;2024-01-06T01:12:40;54.40;;;18.40;;
47483;SDS011;54076;50.322;18.650;2024-01-06T01:17:41;50.70;;;17.70;;
47483;SDS011;54076;50.322;18.650;2024-01-06T01:22:41;58.60;;;19.50;;
47483;SDS011;54076;50.322;18.650;2024-01-06T01:27:42;52.50;;;18.90;;
47483;SDS011;54076;50.322;18.650;2024-01-06T01:32:43;55.10;;;19.10;;
47483;SDS011;54076;50.322;18.650;2024-01-06T01:37:45;57.90;;;19.20;;
47483;SDS011;54076;50.322;18.650;2024-01-06T01:42:45;50.20;;;17.00;;
47483;SDS011;54076;50.322;18.650;2024-01-06T01:47:47;51.90;;;17.90;;
47483;SDS011;54076;50.322;18.650;2024-01-06T01:52:48;52.50;;;17.60;;
47483;SDS011;54076;50.322;18.650;2024-01-06T01:57:49;49.10;;;17.80;;
47483;SDS011;54076;50.322;18.650;2024-01-06T02:02:50;52.70;;;17.90;;
47483;SDS011;54076;50.322;18.650;2024-01-06T02:07:51;48.00;;;17.90;;
47483;SDS011;54076;50.322;18.650;2024-01-06T02:12:52;50.50;;;18.00;;
47483;SDS011;54076;50.322;18.650;2024-01-06T02:17:53;51.20;;;18.70;;
47483;SDS011;54076;50.322;18.650;2024-01-06T02:22:54;49.60;;;18.00;;
47483;SDS011;54076;50.322;18.650;2024-01-06T02:27:55;49.60;;;18.00;;
47483;SDS011;54076;50.322;18.650;2024-01-06T02:32:56;49.70;;;17.30;;
47483;SDS011;54076;50.322;18.650;2024-01-06T02:37:57;54.50;;;18.70;;
47483;SDS011;54076;50.322;18.650;2024-01-06T02:42:58;50.60;;;18.40;;
47483;SDS011;54076;50.322;18.650;2024-01-06T02:47:59;53.00;;;18.40;;
47483;SDS011;54076;50.322;18.650;2024-01-06T02:53:00;50.50;;;18.40;;
47483;SDS011;54076;50.322;18.650;2024-01-06T02:58:01;50.70;;;17.80;;
47483;SDS011;54076;50.322;18.650;2024-01-06T03:03:02;48.70;;;18.00;;
47483;SDS011;54076;50.322;18.650;2024-01-06T03:08:04;52.80;;;19.30;;
47483;SDS011;54076;50.322;18.650;2024-01-06T03:13:05;59.20;;;20.30;;
47483;SDS011;54076;50.322;18.650;2024-01-06T03:18:06;53.50;;;18.70;;
47483;SDS011;54076;50.322;18.650;2024-01-06T03:23:07;49.50;;;19.50;;
47483;SDS011;54076;50.322;18.650;2024-01-06T03:28:08;50.20;;;19.40;;
47483;SDS011;54076;50.322;18.650;2024-01-06T03:33:08;51.90;;;18.80;;
47483;SDS011;54076;50.322;18.650;2024-01-06T03:38:09;55.20;;;18.90;;
47483;SDS011;54076;50.322;18.650;2024-01-06T03:43:10;51.10;;;19.10;;
47483;SDS011;54076;50.322;18.650;2024-01-06T03:48:11;55.80;;;19.10;;
47483;SDS011;54076;50.322;18.650;2024-01-06T03:53:12;50.90;;;19.20;;
47483;SDS011;54076;50.322;18.650;2024-01-06T03:58:13;49.50;;;19.00;;
47483;SDS011;54076;50.322;18.650;2024-01-06T04:03:14;51.90;;;18.90;;
47483;SDS011;54076;50.322;18.650;2024-01-06T04:08:15;53.30;;;20.20;;
47483;SDS011;54076;50.322;18.650;2024-01-06T04:13:16;51.40;;;20.10;;
47483;SDS011;54076;50.322;18.650;2024-01-06T04:18:16;52.50;;;20.30;;
47483;SDS011;54076;50.322;18.650;2024-01-06T04:23:17;49.20;;;19.30;;
47483;SDS011;54076;50.322;18.650;2024-01-06T04:28:18;52.10;;;20.90;;
47483;SDS011;54076;50.322;18.650;2024-01-06T04:33:19;50.90;;;20.50;;
47483;SDS011;54076;50.322;18.650;2024-01-06T04:38:20;50.80;;;20.40;;
47483;SDS011;54076;50.322;18.650;2024-01-06T04:43:21;49.80;;;19.30;;
47483;SDS011;54076;50.322;18.650;2024-01-06T04:48:22;47.80;;;20.50;;
47483;SDS011;54076;50.322;18.650;2024-01-06T04:53:23;49.90;;;21.20;;
47483;SDS011;54076;50.322;18.650;2024-01-06T04:58:24;50.80;;;21.20;;
47483;SDS011;54076;50.322;18.650;2024-01-06T05:03:24;48.60;;;19.60;;
47483;SDS011;54076;50.322;18.650;2024-01-06T05:08:25;51.00;;;19.70;;
47483;SDS011;54076;50.322;18.650;2024-01-06T05:13:26;49.20;;;20.50;;
47483;SDS011;54076;50.322;18.650;2024-01-06T05:18:27;47.80;;;19.80;;
47483;SDS011;54076;50.322;18.650;2024-01-06T05:23:28;51.70;;;21.20;;
47483;SDS011;54076;50.322;18.650;2024-01-06T05:28:30;52.70;;;21.40;;
47483;SDS011;54076;50.322;18.650;2024-01-06T05:33:31;50.80;;;19.50;;
47483;SDS011;54076;50.322;18.650;2024-01-06T05:38:32;54.20;;;22.20;;
47483;SDS011;54076;50.322;18.650;2024-01-06T05:43:32;56.90;;;21.20;;
47483;SDS011;54076;50.322;18.650;2024-01-06T05:48:33;51.70;;;21.40;;
47483;SDS011;54076;50.322;18.650;2024-01-06T05:53:35;57.20;;;21.80;;
47483;SDS011;54076;50.322;18.650;2024-01-06T05:58:36;58.50;;;21.50;;
47483;SDS011;54076;50.322;18.650;2024-01-06T06:03:37;57.40;;;21.60;;
47483;SDS011;54076;50.322;18.650;2024-01-06T06:08:40;62.60;;;22.40;;
47483;SDS011;54076;50.322;18.650;2024-01-06T06:13:43;59.50;;;22.20;;
47483;SDS011;54076;50.322;18.650;2024-01-06T06:18:43;54.30;;;22.40;;
47483;SDS011;54076;50.322;18.650;2024-01-06T06:23:44;58.80;;;21.60;;
47483;SDS011;54076;50.322;18.650;2024-01-06T06:28:45;58.20;;;22.40;;
47483;SDS011;54076;50.322;18.650;2024-01-06T06:33:46;55.10;;;22.40;;
47483;SDS011;54076;50.322;18.650;2024-01-06T06:38:47;56.00;;;22.20;;
47483;SDS011;54076;50.322;18.650;2024-01-06T06:43:48;55.40;;;21.00;;
47483;SDS011;54076;50.322;18.650;2024-01-06T06:48:49;52.10;;;21.50;;
47483;SDS011;54076;50.322;18.650;2024-01-06T06:53:51;49.00;;;20.80;;
47483;SDS011;54076;50.322;18.650;2024-01-06T06:58:51;53.40;;;20.20;;
47483;SDS011;54076;50.322;18.650;2024-01-06T07:03:53;48.50;;;20.40;;
47483;SDS011;54076;50.322;18.650;2024-01-06T07:08:55;54.50;;;19.70;;
47483;SDS011;54076;50.322;18.650;2024-01-06T07:13:56;53.90;;;19.80;;
47483;SDS011;54076;50.322;18.650;2024-01-06T07:18:57;51.30;;;21.30;;
47483;SDS011;54076;50.322;18.650;2024-01-06T07:23:57;52.80;;;23.20;;
47483;SDS011;54076;50.322;18.650;2024-01-06T07:28:58;59.90;;;24.10;;
47483;SDS011;54076;50.322;18.650;2024-01-06T07:33:59;57.00;;;23.50;;
47483;SDS011;54076;50.322;18.650;2024-01-06T07:39:00;58.40;;;24.70;;
47483;SDS011;54076;50.322;18.650;2024-01-06T07:44:01;51.50;;;21.20;;
47483;SDS011;54076;50.322;18.650;2024-01-06T07:49:03;52.10;;;21.00;;
47483;SDS011;54076;50.322;18.650;2024-01-06T07:54:05;53.90;;;22.20;;
47483;SDS011;54076;50.322;18.650;2024-01-06T07:59:09;46.30;;;20.50;;
47483;SDS011;54076;50.322;18.650;2024-01-06T08:04:11;56.40;;;21.70;;
47483;SDS011;54076;50.322;18.650;2024-01-06T08:09:12;59.00;;;22.90;;
47483;SDS011;54076;50.322;18.650;2024-01-06T08:14:13;58.10;;;22.60;;
47483;SDS011;54076;50.322;18.650;2024-01-06T08:19:14;55.90;;;22.40;;
47483;SDS011;54076;50.322;18.650;2024-01-06T08:24:15;60.80;;;22.90;;
47483;SDS011;54076;50.322;18.650;2024-01-06T08:29:16;57.30;;;23.00;;
47483;SDS011;54076;50.322;18.650;2024-01-06T08:34:20;59.90;;;22.50;;
47483;SDS011;54076;50.322;18.650;2024-01-06T08:39:21;53.20;;;21.10;;
47483;SDS011;54076;50.322;18.650;2024-01-06T08:44:23;54.30;;;22.00;;
47483;SDS011;54076;50.322;18.650;2024-01-06T08:49:23;50.10;;;21.60;;
47483;SDS011;54076;50.322;18.650;2024-01-06T08:54:25;57.70;;;23.60;;
47483;SDS011;54076;50.322;18.650;2024-01-06T08:59:25;56.90;;;23.60;;
47483;SDS011;54076;50.322;18.650;2024-01-06T09:04:26;54.50;;;22.80;;
47483;SDS011;54076;50.322;18.650;2024-01-06T09:09:27;69.40;;;29.20;;
47483;SDS011;54076;50.322;18.650;2024-01-06T09:14:28;57.40;;;24.30;;
47483;SDS011;54076;50.322;18.650;2024-01-06T09:19:30;62.90;;;23.40;;
47483;SDS011;54076;50.322;18.650;2024-01-06T09:24:31;53.50;;;23.30;;
47483;SDS011;54076;50.322;18.650;2024-01-06T09:29:34;57.70;;;21.90;;
47483;SDS011;54076;50.322;18.650;2024-01-06T09:34:34;59.90;;;23.30;;
47483;SDS011;54076;50.322;18.650;2024-01-06T09:39:35;62.60;;;24.60;;
47483;SDS011;54076;50.322;18.650;2024-01-06T09:44:36;60.70;;;25.60;;
47483;SDS011;54076;50.322;18.650;2024-01-06T09:49:38;59.40;;;25.20;;
47483;SDS011;54076;50.322;18.650;2024-01-06T09:54:45;69.80;;;25.10;;
47483;SDS011;54076;50.322;18.650;2024-01-06T09:59:51;78.90;;;30.60;;
47483;SDS011;54076;50.322;18.650;2024-01-06T10:04:52;69.50;;;27.60;;
47483;SDS011;54076;50.322;18.650;2024-01-06T10:09:54;67.50;;;27.40;;
47483;SDS011;54076;50.322;18.650;2024-01-06T10:14:55;70.00;;;27.60;;
47483;SDS011;54076;50.322;18.650;2024-01-06T10:19:57;66.10;;;26.00;;
47483;SDS011;54076;50.322;18.650;2024-01-06T10:24:58;64.90;;;26.70;;
47483;SDS011;54076;50.322;18.650;2024-01-06T10:30:00;64.50;;;26.90;;
47483;SDS011;54076;50.322;18.650;2024-01-06T10:35:03;68.20;;;27.50;;
47483;SDS011;54076;50.322;18.650;2024-01-06T10:40:10;67.90;;;27.30;;
47483;SDS011;54076;50.322;18.650;2024-01-06T10:45:13;67.40;;;26.80;;
47483;SDS011;54076;50.322;18.650;2024-01-06T10:50:17;66.50;;;25.70;;
47483;SDS011;54076;50.322;18.650;2024-01-06T10:55:18;69.10;;;27.20;;
47483;SDS011;54076;50.322;18.650;2024-01-06T11:00:21;60.90;;;26.50;;
47483;SDS011;54076;50.322;18.650;2024-01-06T11:05:22;68.40;;;27.40;;
47483;SDS011;54076;50.322;18.650;2024-01-06T11:10:23;63.20;;;26.80;;
47483;SDS011;54076;50.322;18.650;2024-01-06T11:15:44;67.30;;;27.30;;
47483;SDS011;54076;50.322;18.650;2024-01-06T11:21:23;95.60;;;36.50;;
47483;SDS011;54076;50.322;18.650;2024-01-06T11:26:26;66.10;;;27.10;;
47483;SDS011;54076;50.322;18.650;2024-01-06T11:31:31;64.70;;;26.00;;
47483;SDS011;54076;50.322;18.650;2024-01-06T11:36:32;66.60;;;26.90;;
47483;SDS011;54076;50.322;18.650;2024-01-06T11:41:49;63.20;;;26.00;;
47483;SDS011;54076;50.322;18.650;2024-01-06T11:46:52;63.60;;;25.10;;
47483;SDS011;54076;50.322;18.650;2024-01-06T11:51:58;65.60;;;26.40;;
47483;SDS011;54076;50.322;18.650;2024-01-06T11:57:00;67.90;;;28.20;;
47483;SDS011;54076;50.322;18.650;2024-01-06T12:02:01;67.80;;;26.80;;
47483;SDS011;54076;50.322;18.650;2024-01-06T12:07:06;69.40;;;25.90;;
47483;SDS011;54076;50.322;18.650;2024-01-06T12:12:08;63.90;;;25.70;;
47483;SDS011;54076;50.322;18.650;2024-01-06T12:17:14;70.60;;;27.90;;
47483;SDS011;54076;50.322;18.650;2024-01-06T12:22:15;57.70;;;24.10;;
47483;SDS011;54076;50.322;18.650;2024-01-06T12:27:17;60.30;;;23.70;;
47483;SDS011;54076;50.322;18.650;2024-01-06T12:32:18;59.90;;;23.70;;
47483;SDS011;54076;50.322;18.650;2024-01-06T12:37:19;65.10;;;24.70;;
47483;SDS011;54076;50.322;18.650;2024-01-06T12:42:20;53.70;;;21.50;;
47483;SDS011;54076;50.322;18.650;2024-01-06T12:47:24;54.20;;;22.20;;
47483;SDS011;54076;50.322;18.650;2024-01-06T12:52:25;51.90;;;21.10;;
47483;SDS011;54076;50.322;18.650;2024-01-06T12:57:26;49.20;;;19.70;;
47483;SDS011;54076;50.322;18.650;2024-01-06T13:02:27;48.20;;;19.60;;
47483;SDS011;54076;50.322;18.650;2024-01-06T13:07:28;46.10;;;18.70;;
47483;SDS011;54076;50.322;18.650;2024-01-06T13:12:29;39.60;;;18.20;;
47483;SDS011;54076;50.322;18.650;2024-01-06T13:17:30;42.70;;;18.40;;
47483;SDS011;54076;50.322;18.650;2024-01-06T13:22:31;42.70;;;17.30;;
47483;SDS011;54076;50.322;18.650;2024-01-06T13:27:32;38.60;;;16.40;;
47483;SDS011;54076;50.322;18.650;2024-01-06T13:32:33;35.00;;;15.40;;
47483;SDS011;54076;50.322;18.650;2024-01-06T13:37:34;36.20;;;16.40;;
47483;SDS011;54076;50.322;18.650;2024-01-06T13:42:35;35.70;;;16.20;;
47483;SDS011;54076;50.322;18.650;2024-01-06T13:47:36;36.60;;;16.50;;
47483;SDS011;54076;50.322;18.650;2024-01-06T13:52:37;40.20;;;17.40;;
47483;SDS011;54076;50.322;18.650;2024-01-06T13:57:38;36.60;;;16.40;;
47483;SDS011;54076;50.322;18.650;2024-01-06T14:02:41;36.10;;;17.20;;
47483;SDS011;54076;50.322;18.650;2024-01-06T14:07:42;36.80;;;17.20;;
47483;SDS011;54076;50.322;18.650;2024-01-06T14:12:46;38.10;;;15.70;;
47483;SDS011;54076;50.322;18.650;2024-01-06T14:17:47;40.40;;;15.70;;
47483;SDS011;54076;50.322;18.650;2024-01-06T14:22:50;58.70;;;24.70;;
47483;SDS011;54076;50.322;18.650;2024-01-06T14:27:51;34.70;;;16.10;;
47483;SDS011;54076;50.322;18.650;2024-01-06T14:32:51;38.20;;;16.60;;
47483;SDS011;54076;50.322;18.650;2024-01-06T14:37:52;35.80;;;16.00;;
47483;SDS011;54076;50.322;18.650;2024-01-06T14:42:54;33.30;;;14.30;;
47483;SDS011;54076;50.322;18.650;2024-01-06T14:47:55;34.90;;;14.30;;
47483;SDS011;54076;50.322;18.650;2024-01-06T14:52:56;34.80;;;14.70;;
47483;SDS011;54076;50.322;18.650;2024-01-06T14:57:57;32.60;;;14.90;;
47483;SDS011;54076;50.322;18.650;2024-01-06T15:02:58;31.80;;;13.70;;
47483;SDS011;54076;50.322;18.650;2024-01-06T15:07:59;35.40;;;14.20;;
47483;SDS011;54076;50.322;18.650;2024-01-06T15:13:00;31.70;;;13.60;;
47483;SDS011;54076;50.322;18.650;2024-01-06T15:18:00;33.50;;;15.10;;
47483;SDS011;54076;50.322;18.650;2024-01-06T15:23:01;32.40;;;13.70;;
47483;SDS011;54076;50.322;18.650;2024-01-06T15:28:02;32.10;;;14.40;;
47483;SDS011;54076;50.322;18.650;2024-01-06T15:33:04;35.30;;;14.50;;
47483;SDS011;54076;50.322;18.650;2024-01-06T15:38:05;34.60;;;14.10;;
47483;SDS011;54076;50.322;18.650;2024-01-06T15:43:06;30.40;;;14.40;;
47483;SDS011;54076;50.322;18.650;2024-01-06T15:48:07;35.90;;;14.00;;
47483;SDS011;54076;50.322;18.650;2024-01-06T15:53:08;31.00;;;12.90;;
47483;SDS011;54076;50.322;18.650;2024-01-06T15:58:09;28.60;;;11.90;;
47483;SDS011;54076;50.322;18.650;2024-01-06T16:03:10;29.40;;;11.70;;
47483;SDS011;54076;50.322;18.650;2024-01-06T16:08:11;31.60;;;12.90;;
47483;SDS011;54076;50.322;18.650;2024-01-06T16:13:14;29.40;;;11.70;;
47483;SDS011;54076;50.322;18.650;2024-01-06T16:18:15;25.20;;;10.60;;
47483;SDS011;54076;50.322;18.650;2024-01-06T16:23:16;27.70;;;10.90;;
47483;SDS011;54076;50.322;18.650;2024-01-06T16:28:17;24.70;;;11.20;;
47483;SDS011;54076;50.322;18.650;2024-01-06T16:33:18;21.60;;;10.40;;
47483;SDS011;54076;50.322;18.650;2024-01-06T16:38:19;24.30;;;10.60;;
47483;SDS011;54076;50.322;18.650;2024-01-06T16:43:20;23.60;;;9.90;;
47483;SDS011;54076;50.322;18.650;2024-01-06T16:48:21;24.00;;;10.10;;
47483;SDS011;54076;50.322;18.650;2024-01-06T16:53:22;24.60;;;9.90;;
47483;SDS011;54076;50.322;18.650;2024-01-06T16:58:23;22.60;;;10.00;;
47483;SDS011;54076;50.322;18.650;2024-01-06T17:03:24;22.70;;;10.40;;
47483;SDS011;54076;50.322;18.650;2024-01-06T17:08:25;22.90;;;10.00;;
47483;SDS011;54076;50.322;18.650;2024-01-06T17:13:26;25.80;;;11.50;;
47483;SDS011;54076;50.322;18.650;2024-01-06T17:18:27;27.50;;;11.60;;
47483;SDS011;54076;50.322;18.650;2024-01-06T17:23:28;30.60;;;13.10;;
47483;SDS011;54076;50.322;18.650;2024-01-06T17:28:28;28.40;;;11.70;;
47483;SDS011;54076;50.322;18.650;2024-01-06T17:33:29;30.90;;;11.10;;
47483;SDS011;54076;50.322;18.650;2024-01-06T17:38:30;27.70;;;11.00;;
47483;SDS011;54076;50.322;18.650;2024-01-06T17:43:31;28.20;;;11.30;;
47483;SDS011;54076;50.322;18.650;2024-01-06T17:48:32;29.30;;;10.50;;
47483;SDS011;54076;50.322;18.650;2024-01-06T17:53:33;23.90;;;9.70;;
47483;SDS011;54076;50.322;18.650;2024-01-06T17:58:34;25.10;;;10.70;;
47483;SDS011;54076;50.322;18.650;2024-01-06T18:03:35;24.50;;;10.60;;
47483;SDS011;54076;50.322;18.650;2024-01-06T18:08:37;25.20;;;10.90;;
47483;SDS011;54076;50.322;18.650;2024-01-06T18:13:38;22.70;;;9.60;;
47483;SDS011;54076;50.322;18.650;2024-01-06T18:18:39;26.50;;;11.20;;
47483;SDS011;54076;50.322;18.650;2024-01-06T18:23:40;23.60;;;10.20;;
47483;SDS011;54076;50.322;18.650;2024-01-06T18:28:41;26.00;;;10.40;;
47483;SDS011;54076;50.322;18.650;2024-01-06T18:33:42;22.80;;;9.90;;
47483;SDS011;54076;50.322;18.650;2024-01-06T18:38:43;19.60;;;9.40;;
47483;SDS011;54076;50.322;18.650;2024-01-06T18:43:43;22.30;;;9.20;;
47483;SDS011;54076;50.322;18.650;2024-01-06T18:48:44;36.80;;;15.00;;
47483;SDS011;54076;50.322;18.650;2024-01-06T18:53:45;23.40;;;9.70;;
47483;SDS011;54076;50.322;18.650;2024-01-06T18:58:46;19.70;;;8.30;;
47483;SDS011;54076;50.322;18.650;2024-01-06T19:03:47;16.80;;;8.10;;
47483;SDS011;54076;50.322;18.650;2024-01-06T19:08:48;18.50;;;8.50;;
47483;SDS011;54076;50.322;18.650;2024-01-06T19:13:49;18.80;;;8.30;;
47483;SDS011;54076;50.322;18.650;2024-01-06T19:18:50;17.40;;;7.80;;
47483;SDS011;54076;50.322;18.650;2024-01-06T19:23:51;18.10;;;7.30;;
47483;SDS011;54076;50.322;18.650;2024-01-06T19:28:52;17.40;;;7.30;;
47483;SDS011;54076;50.322;18.650;2024-01-06T19:33:53;15.70;;;6.90;;
47483;SDS011;54076;50.322;18.650;2024-01-06T19:38:54;17.00;;;7.60;;
47483;SDS011;54076;50.322;18.650;2024-01-06T19:43:55;14.60;;;7.10;;
47483;SDS011;54076;50.322;18.650;2024-01-06T19:49:00;15.60;;;7.60;;
47483;SDS011;54076;50.322;18.650;2024-01-06T19:54:01;15.80;;;7.50;;
47483;SDS011;54076;50.322;18.650;2024-01-06T19:59:02;13.80;;;6.50;;
47483;SDS011;54076;50.322;18.650;2024-01-06T20:04:03;13.20;;;6.30;;
47483;SDS011;54076;50.322;18.650;2024-01-06T20:09:04;14.80;;;6.00;;
47483;SDS011;54076;50.322;18.650;2024-01-06T20:14:07;12.50;;;6.50;;
47483;SDS011;54076;50.322;18.650;2024-01-06T20:19:08;12.80;;;6.10;;
47483;SDS011;54076;50.322;18.650;2024-01-06T20:24:09;13.70;;;6.10;;
47483;SDS011;54076;50.322;18.650;2024-01-06T20:29:09;13.10;;;6.70;;
47483;SDS011;54076;50.322;18.650;2024-01-06T20:34:11;10.70;;;6.20;;
47483;SDS011;54076;50.322;18.650;2024-01-06T20:39:12;13.40;;;6.80;;
47483;SDS011;54076;50.322;18.650;2024-01-06T20:44:13;13.90;;;6.70;;
47483;SDS011;54076;50.322;18.650;2024-01-06T20:49:14;14.30;;;7.20;;
47483;SDS011;54076;50.322;18.650;2024-01-06T20:54:15;15.80;;;7.50;;
47483;SDS011;54076;50.322;18.650;2024-01-06T20:59:16;17.20;;;7.40;;
47483;SDS011;54076;50.322;18.650;2024-01-06T21:04:16;18.10;;;8.10;;
47483;SDS011;54076;50.322;18.650;2024-01-06T21:09:18;18.80;;;8.60;;
47483;SDS011;54076;50.322;18.650;2024-01-06T21:14:21;17.40;;;7.80;;
47483;SDS011;54076;50.322;18.650;2024-01-06T21:19:22;14.10;;;7.30;;
47483;SDS011;54076;50.322;18.650;2024-01-06T21:24:24;16.50;;;7.10;;
47483;SDS011;54076;50.322;18.650;2024-01-06T21:29:26;15.60;;;7.80;;
47483;SDS011;54076;50.322;18.650;2024-01-06T21:34:27;17.20;;;8.30;;
47483;SDS011;54076;50.322;18.650;2024-01-06T21:39:28;16.00;;;8.60;;
47483;SDS011;54076;50.322;18.650;2024-01-06T21:44:29;19.70;;;7.80;;
47483;SDS011;54076;50.322;18.650;2024-01-06T21:49:30;16.70;;;8.50;;
47483;SDS011;54076;50.322;18.650;2024-01-06T21:54:31;16.30;;;8.30;;
47483;SDS011;54076;50.322;18.650;2024-01-06T21:59:32;18.90;;;9.10;;
47483;SDS011;54076;50.322;18.650;2024-01-06T22:04:34;16.90;;;7.80;;
47483;SDS011;54076;50.322;18.650;2024-01-06T22:09:34;18.40;;;8.50;;
47483;SDS011;54076;50.322;18.650;2024-01-06T22:14:36;18.40;;;8.10;;
47483;SDS011;54076;50.322;18.650;2024-01-06T22:19:36;17.30;;;7.70;;
47483;SDS011;54076;50.322;18.650;2024-01-06T22:24:39;16.70;;;7.80;;
47483;SDS011;54076;50.322;18.650;2024-01-06T22:29:42;16.20;;;8.10;;
47483;SDS011;54076;50.322;18.650;2024-01-06T22:34:45;17.10;;;7.00;;
47483;SDS011;54076;50.322;18.650;2024-01-06T22:39:45;15.90;;;7.40;;
47483;SDS011;54076;50.322;18.650;2024-01-06T22:44:47;16.40;;;8.10;;
47483;SDS011;54076;50.322;18.650;2024-01-06T22:49:48;17.10;;;7.40;;
47483;SDS011;54076;50.322;18.650;2024-01-06T22:54:49;17.20;;;8.10;;
47483;SDS011;54076;50.322;18.650;2024-01-06T22:59:50;17.30;;;7.80;;
47483;SDS011;54076;50.322;18.650;2024-01-06T23:04:51;16.80;;;6.50;;
47483;SDS011;54076;50.322;18.650;2024-01-06T23:09:54;14.70;;;7.80;;
47483;SDS011;54076;50.322;18.650;2024-01-06T23:14:54;17.20;;;7.50;;
47483;SDS011;54076;50.322;18.650;2024-01-06T23:19:55;16.80;;;8.00;;
47483;SDS011;54076;50.322;18.650;2024-01-06T23:24:56;15.90;;;6.80;;
47483;SDS011;54076;50.322;18.650;2024-01-06T23:29:57;13.50;;;6.70;;
47483;SDS011;54076;50.322;18.650;2024-01-06T23:34:58;13.00;;;6.60;;
47483;SDS011;54076;50.322;18.650;2024-01-06T23:39:59;13.90;;;6.80;;
47483;SDS011;54076;50.322;18.650;2024-01-06T23:45:00;18.70;;;7.40;;
47483;SDS011;54076;50.322;18.650;2024-01-06T23:50:01;15.30;;;6.70;;
47483;SDS011;54076;50.322;18.650;2024-01-06T23:55:04;15.70;;;7.10;;
